Wayana — PE5639 — position and weather

sailwx.info

Track history (hours):
 
Tides and Currents Weather Stations Pressure Air Temp Water Temp Dewpoint Dewpoint Depression Visibility Wind Speed Wind Dir Waves Ship Positions

Wayana

Last reported at 2016-Apr-03 12:21 UTC. Time now 2016-May-01 09:51 UTC.
Position N 52°55' E 005°03'.
Warning: this ship's position is 27 days out of date.

Length 14 m.

Type: Sailing vessel. MMSI: 244020670.

Date/timePositionNaut miles runAvg speedWind from/ knotsBaromVisibWave heightAir tempDewpointWater temp
2016-Apr-03 12:21N 52°55' E 005°03'5 5.7
2016-Apr-03 11:33N 52°52' E 005°07'5 5.1
2016-Apr-03 10:33N 52°48' E 005°12'4 4.1
2016-Apr-03 09:33N 52°45' E 005°17'3 2.8
2016-Apr-03 08:32N 52°42' E 005°18'0 0.0
2016-Apr-03 07:32N 52°42' E 005°18'0 0.0
2016-Apr-03 06:32N 52°42' E 005°18'0 0.0
2016-Apr-03 05:32N 52°42' E 005°18'0 0.0
2016-Apr-03 04:32N 52°42' E 005°18'0 0.0
2016-Apr-03 03:32N 52°42' E 005°18'0 0.0
2016-Apr-03 02:32N 52°42' E 005°18'0 0.0
2016-Apr-03 01:32N 52°42' E 005°18'0 0.0
2016-Apr-03 00:32N 52°42' E 005°18'0 0.0
2016-Apr-02 23:32N 52°42' E 005°18'0 0.0
2016-Apr-02 22:32N 52°42' E 005°18'0 0.0
2016-Apr-02 21:32N 52°42' E 005°18'0 0.0
2016-Apr-02 20:32N 52°42' E 005°18'0 0.0
2016-Apr-02 19:32N 52°42' E 005°18'0 0.0
2016-Apr-02 18:32N 52°42' E 005°18'0 0.0
2016-Apr-02 17:32N 52°42' E 005°18'0 0.0
2016-Apr-02 16:32N 52°42' E 005°18'0 0.0
2016-Apr-02 15:32N 52°42' E 005°18'0 0.0
2016-Apr-02 14:31N 52°42' E 005°18'0 0.0
2016-Apr-02 13:31N 52°42' E 005°18'0 0.0
2016-Apr-02 12:31N 52°42' E 005°18'0 0.0
2016-Apr-02 11:31N 52°42' E 005°18'0 0.0
2016-Apr-02 10:31N 52°42' E 005°18'0 0.0
2016-Apr-02 09:31N 52°42' E 005°18'0 0.0
2016-Apr-02 08:31N 52°42' E 005°18'0 0.0
2016-Apr-02 07:31N 52°42' E 005°18'0 0.0
2016-Apr-02 06:31N 52°42' E 005°18'0 0.0
2016-Apr-02 05:31N 52°42' E 005°18'0 0.0
2016-Apr-02 04:31N 52°42' E 005°18'0 0.0
2016-Apr-02 03:31N 52°42' E 005°18'0 0.0
2016-Apr-02 02:34N 52°42' E 005°18'0 0.0
2016-Apr-02 01:33N 52°42' E 005°18'0 0.0
2016-Apr-02 00:33N 52°42' E 005°18'0 0.0
2016-Apr-01 23:33N 52°42' E 005°18'0 0.0
2016-Apr-01 22:33N 52°42' E 005°18'0 0.0
2016-Apr-01 21:33N 52°42' E 005°18'0 0.0
2016-Apr-01 20:33N 52°42' E 005°18'0 0.0
2016-Apr-01 19:33N 52°42' E 005°18'0 0.0
2016-Apr-01 18:33N 52°42' E 005°18'0 0.0
2016-Apr-01 17:33N 52°42' E 005°18'0 0.0
2016-Apr-01 16:33N 52°42' E 005°18'0 0.0
2016-Apr-01 15:33N 52°42' E 005°18'0 0.0
2016-Apr-01 14:33N 52°42' E 005°18'0 0.0
2016-Apr-01 13:33N 52°42' E 005°18'2 1.7
2016-Apr-01 12:33N 52°44' E 005°18'5 5.0
2016-Apr-01 11:33N 52°47' E 005°13'5 5.0
2016-Apr-01 10:33N 52°52' E 005°14'2 2.5
2016-Apr-01 09:33N 52°54' E 005°12'4 4.0
2016-Apr-01 08:33N 52°54' E 005°05'  
Track history (hours):
 
Tides and Currents Weather Stations Pressure Air Temp Water Temp Dewpoint Dewpoint Depression Visibility Wind Speed Wind Dir Waves Ship Positions

Wayana

Last reported at 2016-Apr-03 12:21 UTC. Time now 2016-May-01 09:51 UTC.
Position N 52°55' E 005°03'.
Warning: this ship's position is 27 days out of date.

Length 14 m.

Type: Sailing vessel. MMSI: 244020670.

Date/timePositionNaut miles runAvg speedWind from/ knotsBaromVisibWave heightAir tempDewpointWater temp
2016-Apr-03 12:21N 52°55' E 005°03'5 5.7
2016-Apr-03 11:33N 52°52' E 005°07'5 5.1
2016-Apr-03 10:33N 52°48' E 005°12'4 4.1
2016-Apr-03 09:33N 52°45' E 005°17'3 2.8
2016-Apr-03 08:32N 52°42' E 005°18'0 0.0
2016-Apr-03 07:32N 52°42' E 005°18'0 0.0
2016-Apr-03 06:32N 52°42' E 005°18'0 0.0
2016-Apr-03 05:32N 52°42' E 005°18'0 0.0
2016-Apr-03 04:32N 52°42' E 005°18'0 0.0
2016-Apr-03 03:32N 52°42' E 005°18'0 0.0
2016-Apr-03 02:32N 52°42' E 005°18'0 0.0
2016-Apr-03 01:32N 52°42' E 005°18'0 0.0
2016-Apr-03 00:32N 52°42' E 005°18'0 0.0
2016-Apr-02 23:32N 52°42' E 005°18'0 0.0
2016-Apr-02 22:32N 52°42' E 005°18'0 0.0
2016-Apr-02 21:32N 52°42' E 005°18'0 0.0
2016-Apr-02 20:32N 52°42' E 005°18'0 0.0
2016-Apr-02 19:32N 52°42' E 005°18'0 0.0
2016-Apr-02 18:32N 52°42' E 005°18'0 0.0
2016-Apr-02 17:32N 52°42' E 005°18'0 0.0
2016-Apr-02 16:32N 52°42' E 005°18'0 0.0
2016-Apr-02 15:32N 52°42' E 005°18'0 0.0
2016-Apr-02 14:31N 52°42' E 005°18'0 0.0
2016-Apr-02 13:31N 52°42' E 005°18'0 0.0
2016-Apr-02 12:31N 52°42' E 005°18'0 0.0
2016-Apr-02 11:31N 52°42' E 005°18'0 0.0
2016-Apr-02 10:31N 52°42' E 005°18'0 0.0
2016-Apr-02 09:31N 52°42' E 005°18'0 0.0
2016-Apr-02 08:31N 52°42' E 005°18'0 0.0
2016-Apr-02 07:31N 52°42' E 005°18'0 0.0
2016-Apr-02 06:31N 52°42' E 005°18'0 0.0
2016-Apr-02 05:31N 52°42' E 005°18'0 0.0
2016-Apr-02 04:31N 52°42' E 005°18'0 0.0
2016-Apr-02 03:31N 52°42' E 005°18'0 0.0
2016-Apr-02 02:34N 52°42' E 005°18'0 0.0
2016-Apr-02 01:33N 52°42' E 005°18'0 0.0
2016-Apr-02 00:33N 52°42' E 005°18'0 0.0
2016-Apr-01 23:33N 52°42' E 005°18'0 0.0
2016-Apr-01 22:33N 52°42' E 005°18'0 0.0
2016-Apr-01 21:33N 52°42' E 005°18'0 0.0
2016-Apr-01 20:33N 52°42' E 005°18'0 0.0
2016-Apr-01 19:33N 52°42' E 005°18'0 0.0
2016-Apr-01 18:33N 52°42' E 005°18'0 0.0
2016-Apr-01 17:33N 52°42' E 005°18'0 0.0
2016-Apr-01 16:33N 52°42' E 005°18'0 0.0
2016-Apr-01 15:33N 52°42' E 005°18'0 0.0
2016-Apr-01 14:33N 52°42' E 005°18'0 0.0
2016-Apr-01 13:33N 52°42' E 005°18'2 1.7
2016-Apr-01 12:33N 52°44' E 005°18'5 5.0
2016-Apr-01 11:33N 52°47' E 005°13'5 5.0
2016-Apr-01 10:33N 52°52' E 005°14'2 2.5
2016-Apr-01 09:33N 52°54' E 005°12'4 4.0
2016-Apr-01 08:33N 52°54' E 005°05'  

Dump ship's entire track history